Stations météo

réclame
Mon MeteoGroup
Serralta di S. Vito, Italie (16364): Température de l'air & dewpoint: 15.01.2019 17:00:00 - 21.01.2019 17:00:00 (CET)Serralta di S. Vito, Italie (16364): Vitesse du vent: 15.01.2019 17:00:00 - 21.01.2019 17:00:00 (CET)Serralta di S. Vito, Italie (16364): Direction du vent: 15.01.2019 17:00:00 - 21.01.2019 17:00:00 (CET)Serralta di S. Vito, Italie (16364): Quantités de précipitations: 15.01.2019 17:00:00 - 21.01.2019 17:00:00 (CET)
Date & Time tt [°C] td [°C] ff [km/h] ff [knt] dd rr [mm]
21.01.2019 17:00:00 - - - - - -
21.01.2019 16:00:00 - - - - - -
21.01.2019 15:00:00 5,3 2,8 13 7 SE -
21.01.2019 14:00:00 - - - - - -
21.01.2019 13:00:00 5,7 3,5 16 9 SSE 0,0
21.01.2019 12:00:00 7,1 5,1 15 8 SSE -
21.01.2019 11:00:00 4,7 2,5 8 4 SE -
21.01.2019 10:00:00 3,8 1,6 13 7 SSE -
21.01.2019 09:00:00 3,4 1,2 9 5 ESE -
21.01.2019 08:00:00 3,2 1,1 13 7 SE -
21.01.2019 07:00:00 2,6 0,3 15 8 SSE 0,0
21.01.2019 06:00:00 2,7 0,4 13 7 SE -
21.01.2019 05:00:00 2,7 0,4 15 8 SSE -
21.01.2019 04:00:00 3,1 0,8 13 7 SE -
21.01.2019 03:00:00 2,9 0,6 15 8 SE -
21.01.2019 02:00:00 3,3 1,0 15 8 S -
21.01.2019 01:00:00 - - - - - 0,0
21.01.2019 00:00:00 3,4 0,9 11 6 SE -
20.01.2019 23:00:00 3,3 0,7 13 7 SSE -
20.01.2019 22:00:00 3,6 0,8 9 5 SE -
20.01.2019 21:00:00 3,9 1,1 8 4 S -
20.01.2019 20:00:00 3,5 0,8 2 1 SE -
20.01.2019 19:00:00 3,7 1,2 11 6 S -
20.01.2019 18:00:00 4,4 1,7 11 6 S -
20.01.2019 17:00:00 4,7 1,8 11 6 E -
20.01.2019 16:00:00 5,4 2,5 8 4 E -
20.01.2019 15:00:00 6,9 3,5 - - - -
20.01.2019 14:00:00 8,5 3,7 5 3 SE -
20.01.2019 13:00:00 - - - - - 0,0
20.01.2019 12:00:00 9,1 5,4 13 7 SSE -
20.01.2019 11:00:00 6,4 3,5 11 6 S -
20.01.2019 10:00:00 5,9 3,0 13 7 E -
20.01.2019 09:00:00 4,8 1,9 16 9 SE -
20.01.2019 08:00:00 3,4 0,6 13 7 ESE -
20.01.2019 07:00:00 3,5 1,0 15 8 SE 0,0
20.01.2019 06:00:00 3,5 1,3 13 7 ESE -
20.01.2019 05:00:00 3,6 1,4 2 1 ESE -
20.01.2019 04:00:00 2,8 0,7 0 0 N -
20.01.2019 03:00:00 3,3 1,2 4 2 WSW -
20.01.2019 02:00:00 3,3 1,2 8 4 WSW -
20.01.2019 01:00:00 3,6 1,4 13 7 W 0,0
20.01.2019 00:00:00 3,7 1,5 15 8 WSW -
19.01.2019 23:00:00 3,9 1,7 13 7 SW -
19.01.2019 22:00:00 4,1 1,9 16 9 W -
19.01.2019 21:00:00 4,3 2,1 18 10 SW -
19.01.2019 20:00:00 4,6 2,4 15 8 WNW -
19.01.2019 19:00:00 4,6 2,4 16 9 WNW 0,0
19.01.2019 18:00:00 4,4 2,1 15 8 W -
19.01.2019 17:00:00 4,7 2,2 16 9 WSW -
19.01.2019 16:00:00 - - - - - -
19.01.2019 15:00:00 6,2 2,6 16 9 WSW -
19.01.2019 14:00:00 7,7 3,3 16 9 W -
19.01.2019 13:00:00 9,1 4,7 11 6 W 0,0
19.01.2019 12:00:00 8,5 2,7 8 4 WSW -
19.01.2019 11:00:00 7,6 3,2 4 2 NW -
19.01.2019 10:00:00 5,8 1,7 5 3 W -
19.01.2019 09:00:00 5,4 1,5 2 1 NE -
19.01.2019 08:00:00 4,3 0,2 5 3 E -
19.01.2019 07:00:00 4,0 -0,1 9 5 E 0,0
19.01.2019 06:00:00 4,5 0,4 8 4 E -
19.01.2019 05:00:00 4,4 1,6 5 3 ENE -
19.01.2019 04:00:00 4,2 1,4 9 5 E -
19.01.2019 03:00:00 4,0 0,5 11 6 E -
19.01.2019 02:00:00 4,2 -0,3 4 2 ESE -
19.01.2019 01:00:00 4,6 0,5 8 4 S 0,0
19.01.2019 00:00:00 4,0 -0,5 5 3 SSW -
18.01.2019 23:00:00 4,4 -0,1 5 3 W -
18.01.2019 22:00:00 4,3 -0,2 9 5 WSW -
18.01.2019 21:00:00 4,6 0,1 11 6 WSW -
18.01.2019 20:00:00 4,2 1,4 13 7 WSW -
18.01.2019 19:00:00 3,9 1,2 11 6 SW 0,0
18.01.2019 18:00:00 4,4 1,7 8 4 W -
18.01.2019 17:00:00 5,6 2,7 2 1 WSW -
18.01.2019 16:00:00 6,3 3,1 11 6 W -
18.01.2019 15:00:00 7,6 4,0 9 5 W -
18.01.2019 14:00:00 9,2 4,6 11 6 SW -
18.01.2019 13:00:00 8,7 3,5 8 4 W 0,0
18.01.2019 12:00:00 9,5 4,6 13 7 W -
18.01.2019 11:00:00 8,3 4,1 16 9 SW -
18.01.2019 10:00:00 6,7 3,6 13 7 SW -
18.01.2019 09:00:00 5,4 2,7 13 7 SW -
18.01.2019 08:00:00 4,3 1,5 11 6 SSW -
18.01.2019 07:00:00 4,3 1,6 11 6 WSW 0,0
18.01.2019 06:00:00 4,4 1,9 13 7 SSW -
18.01.2019 05:00:00 4,2 1,5 11 6 WSW -
18.01.2019 04:00:00 4,6 1,9 13 7 WSW -
18.01.2019 03:00:00 4,8 1,9 15 8 W -
18.01.2019 02:00:00 5,1 2,2 11 6 SW -
18.01.2019 01:00:00 5,1 2,2 16 9 WSW 0,0
18.01.2019 00:00:00 4,9 1,7 8 4 SW -
17.01.2019 23:00:00 5,7 1,7 5 3 SSW -
17.01.2019 22:00:00 5,6 1,1 8 4 SW -
17.01.2019 21:00:00 6,1 1,8 8 4 S -
17.01.2019 20:00:00 5,8 1,5 9 5 SSW -
17.01.2019 19:00:00 5,0 1,1 9 5 SSW -
17.01.2019 18:00:00 4,6 0,7 8 4 SW -
17.01.2019 17:00:00 5,6 1,1 5 3 W -
17.01.2019 16:00:00 6,2 1,9 5 3 WSW -
17.01.2019 15:00:00 6,8 2,2 13 7 W -
17.01.2019 14:00:00 7,5 2,5 13 7 W -
17.01.2019 13:00:00 7,8 2,2 15 8 WSW -
17.01.2019 12:00:00 7,6 0,5 16 9 W -
17.01.2019 11:00:00 6,6 -0,5 15 8 WSW -
17.01.2019 10:00:00 4,1 -6,9 18 10 WNW -
17.01.2019 09:00:00 2,7 -7,1 21 11 W -
17.01.2019 08:00:00 1,6 -3,2 21 11 W -
17.01.2019 07:00:00 1,1 -1,5 21 11 W 0,0
17.01.2019 06:00:00 0,7 -1,9 21 11 WSW -
17.01.2019 05:00:00 0,7 -2,1 16 9 W -
17.01.2019 04:00:00 0,8 -3,0 16 9 WSW -
17.01.2019 03:00:00 1,1 -2,9 22 12 WSW -
17.01.2019 02:00:00 1,3 -2,5 22 12 SW -
17.01.2019 01:00:00 0,8 -1,8 21 11 SW 0,0
17.01.2019 00:00:00 1,1 -1,7 18 10 WSW -
16.01.2019 23:00:00 1,2 -1,4 21 11 SW -
16.01.2019 22:00:00 0,7 -1,9 21 11 WSW -
16.01.2019 21:00:00 0,5 -2,3 26 14 WSW -
16.01.2019 20:00:00 0,6 -2,2 26 14 WSW -
16.01.2019 19:00:00 0,8 -2,3 26 14 WSW -
16.01.2019 18:00:00 0,9 -2,6 22 12 W -
16.01.2019 17:00:00 1,9 -2,7 18 10 W -
16.01.2019 16:00:00 - - - - - -
16.01.2019 15:00:00 4,5 -2,0 18 10 W -
16.01.2019 14:00:00 - - - - - -
16.01.2019 13:00:00 - - - - - 0,0
16.01.2019 12:00:00 - - - - - -
16.01.2019 11:00:00 - - - - - -
16.01.2019 10:00:00 - - - - - -
16.01.2019 09:00:00 - - - - - -
16.01.2019 08:00:00 - - - - - -
16.01.2019 07:00:00 - - - - - 0,0
16.01.2019 06:00:00 - - - - - -
16.01.2019 05:00:00 - - - - - -
16.01.2019 04:00:00 - - - - - -
16.01.2019 03:00:00 - - - - - -
16.01.2019 02:00:00 - - - - - -
16.01.2019 01:00:00 - - - - - 0,0
16.01.2019 00:00:00 - - - - - -
15.01.2019 23:00:00 - - - - - -
15.01.2019 22:00:00 - - - - - -
15.01.2019 21:00:00 - - - - - -
15.01.2019 20:00:00 - - - - - -
15.01.2019 19:00:00 - - - - - 0,0
15.01.2019 18:00:00 - - - - - -
15.01.2019 17:00:00 - - - - - -

tt = Température de l'air
td = dewpoint
ff = Vitesse du vent
dd = Direction du vent
rr = Quantités de précipitations

stations d'obs. à proximité